Time;durP1;ratioP1;P1;durP2;ratioP2;P2;SDS_P1;SDS_P2;PMS_P1;PMS_P2;Temp;Humidity;BMP_temperature;BMP_pressure;BME280_temperature;BME280_humidity;BME280_pressure;Samples;Min_cycle;Max_cycle;Signal;HPM_P1;HPM_P2
2023/03/02 03:01:47;;;;;;;29.40;24.07;;;1.50;99.90;;;;;;5451630;23;20238;-80
2023/03/02 03:04:19;;;;;;;33.40;25.23;;;1.50;99.90;;;;;;4970694;28;20457;-79
2023/03/02 03:06:51;;;;;;;33.87;25.97;;;1.40;99.90;;;;;;4970626;28;20464;-79
2023/03/02 03:09:18;;;;;;;28.33;23.57;;;1.40;99.90;;;;;;4973246;28;20445;-79
2023/03/02 03:11:50;;;;;;;30.90;23.60;;;1.40;99.90;;;;;;4967569;28;20458;-79
2023/03/02 03:14:20;;;;;;;33.90;25.47;;;1.40;99.90;;;;;;4960813;28;20575;-78
2023/03/02 03:16:51;;;;;;;31.00;24.30;;;1.40;99.90;;;;;;4960739;28;20449;-78
2023/03/02 03:19:22;;;;;;;32.43;25.47;;;1.40;99.90;;;;;;4958877;28;20546;-80
2023/03/02 03:21:50;;;;;;;34.30;25.10;;;1.40;99.90;;;;;;4962160;28;20229;-78
2023/03/02 03:24:18;;;;;;;34.00;26.00;;;1.40;99.90;;;;;;4961347;28;20541;-78
2023/03/02 03:26:45;;;;;;;33.13;26.83;;;1.40;99.90;;;;;;4962622;28;20866;-77
2023/03/02 03:29:15;;;;;;;35.63;27.27;;;1.40;99.90;;;;;;4960742;28;20473;-80
2023/03/02 03:31:43;;;;;;;33.23;26.47;;;1.40;99.90;;;;;;4961787;28;20477;-78
2023/03/02 03:34:12;;;;;;;34.90;26.10;;;1.40;99.90;;;;;;4960109;28;20554;-79
2023/03/02 03:36:42;;;;;;;31.43;24.43;;;1.40;99.90;;;;;;4959707;28;20989;-78
2023/03/02 03:39:10;;;;;;;30.83;24.60;;;1.40;99.90;;;;;;4960830;28;20458;-77
2023/03/02 03:41:38;;;;;;;32.23;23.70;;;1.40;99.90;;;;;;4960295;28;20469;-84
2023/03/02 03:44:05;;;;;;;32.03;24.57;;;1.50;99.90;;;;;;4949445;28;20875;-79
2023/03/02 03:46:34;;;;;;;33.17;24.33;;;1.50;99.90;;;;;;4954034;29;20943;-79
2023/03/02 03:49:01;;;;;;;36.37;26.47;;;1.50;99.90;;;;;;4962441;28;20447;-80
2023/03/02 03:51:34;;;;;;;37.67;27.10;;;1.50;99.90;;;;;;4946945;28;20522;-86
2023/03/02 03:54:01;;;;;;;31.40;25.07;;;1.50;99.90;;;;;;4942804;28;20473;-86
2023/03/02 03:56:37;;;;;;;34.70;26.40;;;1.40;99.90;;;;;;4952308;29;20453;-86
2023/03/02 03:59:06;;;;;;;34.20;26.50;;;1.50;99.90;;;;;;4960048;28;20459;-86
2023/03/02 04:01:41;;;;;;;32.87;24.37;;;1.40;99.90;;;;;;4948372;28;20536;-87
2023/03/02 04:04:10;;;;;;;32.20;24.77;;;1.50;99.90;;;;;;4950626;29;20453;-86
2023/03/02 04:06:39;;;;;;;32.63;25.27;;;1.50;99.90;;;;;;4947091;29;20211;-86
2023/03/02 04:09:07;;;;;;;30.60;24.00;;;1.50;99.90;;;;;;4941423;29;20482;-86
2023/03/02 04:11:37;;;;;;;31.07;25.13;;;1.50;99.90;;;;;;4942856;29;20502;-86
2023/03/02 04:14:04;;;;;;;34.90;26.03;;;1.60;99.90;;;;;;4943330;29;20272;-85
2023/03/02 04:16:31;;;;;;;31.23;24.43;;;1.50;99.90;;;;;;4938864;29;20550;-83
2023/03/02 04:18:59;;;;;;;33.47;25.70;;;1.50;99.90;;;;;;4957221;29;20203;-84
2023/03/02 04:21:27;;;;;;;31.00;24.23;;;1.50;99.90;;;;;;4949974;28;20465;-85
2023/03/02 04:23:56;;;;;;;32.03;25.43;;;1.50;99.90;;;;;;4956765;28;20982;-85
2023/03/02 04:26:25;;;;;;;31.27;25.10;;;1.50;99.90;;;;;;4957326;28;20454;-85
2023/03/02 04:28:52;;;;;;;30.60;25.53;;;1.50;99.90;;;;;;4956709;28;20508;-85
2023/03/02 04:31:20;;;;;;;30.33;23.97;;;1.50;99.90;;;;;;4953256;28;20475;-85
2023/03/02 04:33:47;;;;;;;35.87;27.23;;;1.40;99.90;;;;;;4952786;29;20472;-83
2023/03/02 04:36:14;;;;;;;33.40;25.20;;;1.40;99.90;;;;;;4940610;28;20481;-86
2023/03/02 04:38:41;;;;;;;36.37;26.47;;;1.40;99.90;;;;;;4957046;28;20446;-85
2023/03/02 04:41:09;;;;;;;32.50;25.97;;;1.40;99.90;;;;;;4949138;28;20236;-85
2023/03/02 04:43:36;;;;;;;36.30;25.17;;;1.40;99.90;;;;;;4963581;28;20454;-80
2023/03/02 04:46:03;;;;;;;30.30;24.40;;;1.40;99.90;;;;;;4967130;28;20445;-79
2023/03/02 04:48:30;;;;;;;30.40;24.33;;;1.50;99.90;;;;;;4961463;28;20600;-80
2023/03/02 04:50:57;;;;;;;32.97;25.43;;;1.50;99.90;;;;;;4964625;28;20478;-79
2023/03/02 04:53:24;;;;;;;28.70;24.70;;;1.50;99.90;;;;;;4954783;29;20442;-80
2023/03/02 04:55:50;;;;;;;31.67;24.37;;;1.40;99.90;;;;;;4966744;28;20206;-76
2023/03/02 04:58:18;;;;;;;32.30;24.90;;;1.50;99.90;;;;;;4946321;28;20226;-78
2023/03/02 05:00:45;;;;;;;32.90;23.60;;;1.40;99.90;;;;;;4954240;28;20474;-79
2023/03/02 05:03:12;;;;;;;30.70;23.57;;;1.40;99.90;;;;;;4955331;28;20211;-77
2023/03/02 05:05:39;;;;;;;35.13;26.40;;;1.40;99.90;;;;;;4950403;29;20822;-79
2023/03/02 05:08:06;;;;;;;32.17;25.80;;;1.40;99.90;;;;;;4965630;28;20497;-78
2023/03/02 05:10:32;;;;;;;29.57;24.97;;;1.50;99.90;;;;;;4959829;28;20487;-78
2023/03/02 05:13:01;;;;;;;29.87;24.87;;;1.50;99.90;;;;;;4965230;29;20481;-77
2023/03/02 05:15:32;;;;;;;31.33;25.57;;;1.50;99.90;;;;;;4963214;28;20467;-78
2023/03/02 05:17:59;;;;;;;32.33;24.80;;;1.50;99.90;;;;;;4957699;28;20481;-79
2023/03/02 05:20:29;;;;;;;36.50;26.03;;;1.50;99.90;;;;;;4966441;28;20442;-79
2023/03/02 05:22:58;;;;;;;33.93;25.87;;;1.50;99.90;;;;;;4963746;28;20458;-77
2023/03/02 05:25:25;;;;;;;30.33;23.13;;;1.50;99.90;;;;;;4957413;28;20203;-80
2023/03/02 05:27:52;;;;;;;32.83;24.10;;;1.50;99.90;;;;;;4965041;28;20442;-80
2023/03/02 05:30:20;;;;;;;29.97;24.70;;;1.50;99.90;;;;;;4964561;28;20230;-80
2023/03/02 05:32:48;;;;;;;30.43;23.10;;;1.50;99.90;;;;;;4964934;28;20244;-78
2023/03/02 05:35:15;;;;;;;28.03;23.53;;;1.50;99.90;;;;;;4964841;28;20225;-79
2023/03/02 05:37:43;;;;;;;29.27;23.20;;;1.50;99.90;;;;;;4965256;28;20444;-79
2023/03/02 05:40:13;;;;;;;33.77;24.23;;;1.60;99.90;;;;;;4955154;28;20451;-78
2023/03/02 05:42:41;;;;;;;35.43;26.20;;;1.50;99.90;;;;;;4953825;29;20214;-78
2023/03/02 05:45:13;;;;;;;34.20;26.70;;;1.50;99.90;;;;;;4964584;28;20456;-78
2023/03/02 05:47:40;;;;;;;29.80;25.23;;;1.50;99.90;;;;;;4965950;28;20430;-80
2023/03/02 05:50:09;;;;;;;31.50;24.73;;;1.60;99.90;;;;;;4965298;28;20218;-78
2023/03/02 05:52:36;;;;;;;31.33;24.77;;;1.60;99.90;;;;;;4964436;28;20529;-79
2023/03/02 05:55:02;;;;;;;31.90;25.63;;;1.60;99.90;;;;;;4961231;29;20484;-79
2023/03/02 05:57:29;;;;;;;33.13;26.13;;;1.60;99.90;;;;;;4965169;28;20434;-78
2023/03/02 05:59:56;;;;;;;29.67;24.67;;;1.60;99.90;;;;;;4964418;28;20482;-79
2023/03/02 06:02:23;;;;;;;32.13;25.00;;;1.60;99.90;;;;;;4950471;29;20473;-78
2023/03/02 06:04:49;;;;;;;30.70;25.63;;;1.60;99.90;;;;;;4959238;28;20199;-79
2023/03/02 06:07:18;;;;;;;33.73;25.87;;;1.50;99.90;;;;;;4965855;29;20449;-78
2023/03/02 06:09:44;;;;;;;33.90;26.40;;;1.60;99.90;;;;;;4963265;28;20205;-77
2023/03/02 06:12:11;;;;;;;31.53;24.37;;;1.60;99.90;;;;;;4955844;28;20983;-77
2023/03/02 06:14:38;;;;;;;37.13;27.37;;;1.60;99.90;;;;;;4964976;28;20556;-77
2023/03/02 06:17:05;;;;;;;37.83;25.77;;;1.50;99.90;;;;;;4956710;28;20218;-77
2023/03/02 06:19:32;;;;;;;32.67;26.17;;;1.50;99.90;;;;;;4963544;28;20202;-77
2023/03/02 06:21:59;;;;;;;33.97;26.10;;;1.50;99.90;;;;;;4963844;28;20492;-77
2023/03/02 06:24:27;;;;;;;33.37;25.60;;;1.50;99.90;;;;;;4962520;28;20474;-77
2023/03/02 06:26:54;;;;;;;34.63;25.33;;;1.50;99.90;;;;;;4962180;28;20513;-77
2023/03/02 06:29:21;;;;;;;32.67;25.63;;;1.60;99.90;;;;;;4960905;28;20454;-78
2023/03/02 06:31:48;;;;;;;37.07;26.90;;;1.60;99.90;;;;;;4960172;28;20458;-78
2023/03/02 06:34:15;;;;;;;32.03;26.37;;;1.60;99.90;;;;;;4948778;28;20478;-82
2023/03/02 06:36:42;;;;;;;33.73;27.40;;;1.60;99.90;;;;;;4951516;29;20187;-81
2023/03/02 06:39:14;;;;;;;40.27;27.97;;;1.60;99.90;;;;;;4947747;28;20463;-78
2023/03/02 06:41:42;;;;;;;32.07;25.07;;;1.60;99.90;;;;;;4947442;29;20221;-78
2023/03/02 06:44:10;;;;;;;39.20;27.63;;;1.60;99.90;;;;;;4954886;29;20209;-79
2023/03/02 06:46:37;;;;;;;36.50;27.13;;;1.70;99.90;;;;;;4960993;28;20451;-79
2023/03/02 06:49:04;;;;;;;31.43;25.23;;;1.60;99.90;;;;;;4960313;28;20641;-80
2023/03/02 06:51:31;;;;;;;33.77;27.60;;;1.60;99.90;;;;;;4960174;28;20497;-78
2023/03/02 06:53:58;;;;;;;32.77;26.20;;;1.70;99.90;;;;;;4962612;28;20517;-79
2023/03/02 06:56:24;;;;;;;33.43;26.50;;;1.70;99.90;;;;;;4961832;28;20521;-78
2023/03/02 06:58:53;;;;;;;33.80;25.93;;;1.70;99.90;;;;;;4963554;28;20449;-79
2023/03/02 07:01:20;;;;;;;35.83;27.13;;;1.70;99.90;;;;;;4965103;28;20473;-78
2023/03/02 07:03:47;;;;;;;35.17;26.73;;;1.70;99.90;;;;;;4967333;29;20215;-79
2023/03/02 07:06:14;;;;;;;34.87;25.60;;;1.80;99.90;;;;;;4966909;28;20883;-78
2023/03/02 07:08:41;;;;;;;36.43;27.97;;;1.80;99.90;;;;;;4970293;28;20648;-78
2023/03/02 07:11:10;;;;;;;33.03;25.67;;;1.90;99.90;;;;;;4959115;28;20259;-78
2023/03/02 07:13:37;;;;;;;33.00;25.87;;;1.90;99.90;;;;;;4967819;29;20265;-77
2023/03/02 07:16:08;;;;;;;31.27;25.50;;;1.90;99.90;;;;;;4968808;28;20987;-77
2023/03/02 07:18:35;;;;;;;34.33;25.97;;;2.00;99.90;;;;;;4951153;28;20464;-77
2023/03/02 07:21:02;;;;;;;31.97;26.20;;;2.00;99.90;;;;;;4952557;29;20779;-78
2023/03/02 07:23:28;;;;;;;33.77;25.60;;;2.00;99.90;;;;;;4949466;29;20238;-77
2023/03/02 07:25:56;;;;;;;35.70;26.30;;;2.10;99.90;;;;;;4965057;28;20648;-78
2023/03/02 07:28:24;;;;;;;34.03;25.17;;;2.10;99.90;;;;;;4966678;28;20209;-77
2023/03/02 07:30:51;;;;;;;32.17;25.13;;;2.10;99.90;;;;;;4966561;28;20226;-79
2023/03/02 07:33:20;;;;;;;34.37;26.43;;;2.20;99.90;;;;;;4958474;28;20202;-83
2023/03/02 07:35:47;;;;;;;31.33;25.60;;;2.40;99.90;;;;;;4946625;29;20222;-83
2023/03/02 07:38:14;;;;;;;34.30;26.03;;;2.50;99.90;;;;;;4960013;28;20214;-83
2023/03/02 07:40:41;;;;;;;32.73;24.40;;;2.50;99.90;;;;;;4962435;28;20230;-83
2023/03/02 07:43:07;;;;;;;33.13;24.40;;;2.50;99.90;;;;;;4961241;28;20305;-85
2023/03/02 07:45:34;;;;;;;32.50;25.13;;;2.60;99.90;;;;;;4960771;28;20262;-85
2023/03/02 07:48:01;;;;;;;30.93;24.90;;;2.70;99.90;;;;;;4963726;28;20258;-86
2023/03/02 07:50:30;;;;;;;32.57;25.17;;;2.70;99.90;;;;;;4962563;28;20265;-85
2023/03/02 07:52:56;;;;;;;31.10;24.63;;;2.70;99.90;;;;;;4954529;28;20207;-84
2023/03/02 07:55:25;;;;;;;32.63;25.33;;;2.80;99.90;;;;;;4955776;28;20226;-85
2023/03/02 07:57:52;;;;;;;27.83;24.27;;;2.90;99.90;;;;;;4955365;28;20214;-83
2023/03/02 08:00:20;;;;;;;30.70;25.47;;;2.90;99.90;;;;;;4946927;29;20238;-83
2023/03/02 08:02:47;;;;;;;34.73;25.80;;;2.80;99.90;;;;;;4943216;29;20223;-80
2023/03/02 08:05:14;;;;;;;31.23;24.77;;;2.80;99.90;;;;;;4948799;29;20204;-82
2023/03/02 08:07:42;;;;;;;33.87;24.90;;;2.90;99.90;;;;;;4951397;28;20204;-82
2023/03/02 08:10:11;;;;;;;28.70;23.97;;;2.90;99.90;;;;;;4944999;29;20199;-81
2023/03/02 08:12:38;;;;;;;33.87;25.80;;;3.00;99.90;;;;;;4945017;29;20720;-79
2023/03/02 08:15:06;;;;;;;29.57;23.97;;;3.00;99.90;;;;;;4932513;29;20698;-80
2023/03/02 08:17:33;;;;;;;29.70;24.80;;;3.00;99.90;;;;;;4942154;29;20203;-80
2023/03/02 08:19:59;;;;;;;30.53;24.47;;;3.10;99.90;;;;;;4932277;29;20216;-79
2023/03/02 08:22:26;;;;;;;30.53;24.00;;;3.30;99.90;;;;;;4949441;28;20246;-79
2023/03/02 08:24:54;;;;;;;30.90;22.70;;;3.40;99.90;;;;;;4948716;29;20204;-78
2023/03/02 08:27:22;;;;;;;28.60;23.87;;;3.50;99.90;;;;;;4946515;29;20208;-78
2023/03/02 08:29:48;;;;;;;30.07;24.63;;;3.70;99.90;;;;;;4952875;29;20258;-78
2023/03/02 08:32:15;;;;;;;29.17;23.93;;;3.80;99.90;;;;;;4953549;28;20281;-77
2023/03/02 08:34:42;;;;;;;29.47;24.47;;;3.80;99.90;;;;;;4952102;29;20195;-79
2023/03/02 08:37:09;;;;;;;32.37;24.73;;;3.80;99.90;;;;;;4953677;29;20203;-78
2023/03/02 08:39:36;;;;;;;27.57;23.73;;;3.80;99.90;;;;;;4950040;29;20203;-80
2023/03/02 08:42:04;;;;;;;26.13;23.27;;;3.80;99.90;;;;;;4949952;29;20254;-78
2023/03/02 08:44:30;;;;;;;30.03;24.00;;;3.90;99.90;;;;;;4948151;29;20677;-78
2023/03/02 08:46:57;;;;;;;29.93;24.10;;;4.00;99.90;;;;;;4949510;29;20207;-77
2023/03/02 08:49:24;;;;;;;30.37;24.13;;;4.00;99.90;;;;;;4952680;29;20218;-78
2023/03/02 08:51:52;;;;;;;29.27;24.60;;;4.00;99.90;;;;;;4946657;29;20223;-78
2023/03/02 08:54:20;;;;;;;28.83;23.53;;;4.00;99.90;;;;;;4950519;29;20214;-77
2023/03/02 08:56:47;;;;;;;31.50;25.00;;;3.90;99.90;;;;;;4945268;29;20277;-77
2023/03/02 08:59:17;;;;;;;27.00;23.43;;;4.00;99.90;;;;;;4950090;29;20203;-79
2023/03/02 09:01:44;;;;;;;26.43;22.40;;;4.10;99.90;;;;;;4945834;29;20219;-78
2023/03/02 09:04:11;;;;;;;30.30;23.23;;;4.20;99.90;;;;;;4943817;29;20195;-78
2023/03/02 09:06:40;;;;;;;26.90;23.00;;;4.30;99.90;;;;;;4938303;29;20241;-78
2023/03/02 09:09:09;;;;;;;27.83;23.37;;;4.30;99.90;;;;;;4946543;29;20691;-78
2023/03/02 09:11:36;;;;;;;30.53;23.30;;;4.50;99.90;;;;;;4947096;29;20228;-79
2023/03/02 09:14:04;;;;;;;29.03;23.87;;;4.40;99.90;;;;;;4953295;28;20275;-78
2023/03/02 09:16:32;;;;;;;34.80;24.03;;;4.30;99.90;;;;;;4945475;28;20215;-79
2023/03/02 09:18:58;;;;;;;25.63;22.93;;;4.40;99.90;;;;;;4936633;29;20580;-78
2023/03/02 09:21:26;;;;;;;26.10;22.90;;;4.60;99.90;;;;;;4942526;29;20254;-78
2023/03/02 09:23:56;;;;;;;25.97;22.37;;;4.70;99.90;;;;;;4954178;29;20603;-78
2023/03/02 09:26:23;;;;;;;26.13;23.03;;;4.70;99.90;;;;;;4929462;28;20201;-77
2023/03/02 09:28:50;;;;;;;27.43;23.00;;;4.80;99.90;;;;;;4954667;29;20674;-77
2023/03/02 09:31:17;;;;;;;29.83;24.50;;;4.90;99.90;;;;;;4958816;28;20255;-77
2023/03/02 09:33:45;;;;;;;27.30;23.30;;;4.90;99.90;;;;;;4952797;29;20256;-77
2023/03/02 09:36:18;;;;;;;27.87;23.27;;;4.80;99.90;;;;;;4953805;28;20276;-77
2023/03/02 09:38:45;;;;;;;26.50;22.13;;;5.00;99.90;;;;;;4960433;28;20204;-77
2023/03/02 09:41:41;;;;;;;27.07;21.67;;;5.10;99.90;;;;;;4932681;28;20224;-77
2023/03/02 09:44:19;;;;;;;23.97;21.40;;;5.30;99.90;;;;;;4953454;29;20220;-80
2023/03/02 09:46:49;;;;;;;30.40;23.37;;;5.40;99.90;;;;;;4953122;29;20204;-78
2023/03/02 09:49:27;;;;;;;27.83;24.07;;;5.30;99.90;;;;;;4960146;28;20201;-77
2023/03/02 09:52:10;;;;;;;28.53;23.43;;;5.40;99.90;;;;;;4960604;28;20228;-78
2023/03/02 09:54:37;;;;;;;25.17;22.47;;;5.60;99.90;;;;;;4960965;28;20211;-78
2023/03/02 09:57:18;;;;;;;25.77;22.57;;;5.80;99.90;;;;;;4959257;29;20656;-77
2023/03/02 09:59:51;;;;;;;27.33;22.70;;;5.90;99.90;;;;;;4961228;28;20193;-78
2023/03/02 10:02:25;;;;;;;26.93;22.87;;;6.20;99.90;;;;;;4935443;28;20231;-77
2023/03/02 10:04:56;;;;;;;25.67;21.97;;;6.20;99.90;;;;;;4949220;29;20237;-77
2023/03/02 10:07:27;;;;;;;26.90;22.77;;;6.30;99.90;;;;;;4955991;29;20677;-78
2023/03/02 10:09:55;;;;;;;26.20;21.90;;;6.40;99.90;;;;;;4959779;28;20206;-78
2023/03/02 10:12:43;;;;;;;23.67;20.73;;;6.60;99.90;;;;;;4951505;28;20258;-78
2023/03/02 10:15:14;;;;;;;26.63;22.43;;;6.80;99.90;;;;;;4951513;29;20548;-77
2023/03/02 10:17:53;;;;;;;25.23;22.53;;;6.90;99.90;;;;;;4953548;28;20696;-77
2023/03/02 10:20:27;;;;;;;28.43;22.50;;;6.80;99.90;;;;;;4932909;29;20211;-77
2023/03/02 10:23:00;;;;;;;25.27;22.33;;;6.80;99.90;;;;;;4958701;28;20205;-77
2023/03/02 10:25:37;;;;;;;27.60;23.70;;;6.90;99.90;;;;;;4958507;28;20198;-77
2023/03/02 10:28:15;;;;;;;29.47;24.20;;;7.00;99.90;;;;;;4958841;28;20627;-77
2023/03/02 10:30:43;;;;;;;29.07;22.73;;;6.60;99.90;;;;;;4934743;29;20250;-77
2023/03/02 10:33:14;;;;;;;29.80;24.70;;;6.80;99.90;;;;;;4944519;29;20294;-77
2023/03/02 10:35:49;;;;;;;27.33;23.97;;;6.70;99.90;;;;;;4941253;29;20867;-82
2023/03/02 10:38:18;;;;;;;26.97;24.07;;;6.70;99.90;;;;;;4944586;28;20202;-82
2023/03/02 10:40:47;;;;;;;25.37;22.17;;;6.80;99.90;;;;;;4937533;29;20227;-82
2023/03/02 10:43:18;;;;;;;26.07;23.27;;;7.00;99.90;;;;;;4948897;28;20229;-81
2023/03/02 10:45:46;;;;;;;24.07;21.43;;;7.10;99.90;;;;;;4955580;28;20226;-82
2023/03/02 10:48:14;;;;;;;24.57;22.07;;;7.30;99.90;;;;;;4950807;28;20210;-81
2023/03/02 10:50:44;;;;;;;26.20;23.27;;;7.40;99.90;;;;;;4955754;28;20234;-82
2023/03/02 10:53:18;;;;;;;27.17;23.47;;;7.50;99.90;;;;;;4957190;28;20756;-82
2023/03/02 10:55:46;;;;;;;27.10;23.20;;;7.40;99.90;;;;;;4930448;29;20222;-82
2023/03/02 10:58:26;;;;;;;25.07;22.23;;;7.40;99.90;;;;;;4945889;29;20202;-83
2023/03/02 11:00:58;;;;;;;28.83;23.30;;;7.60;99.90;;;;;;4945019;28;20235;-83
2023/03/02 11:03:25;;;;;;;28.37;23.40;;;7.50;99.90;;;;;;4954353;28;20266;-83
2023/03/02 11:05:53;;;;;;;27.47;23.97;;;7.40;99.90;;;;;;4948701;28;20198;-82
2023/03/02 11:08:21;;;;;;;30.40;25.63;;;7.50;99.90;;;;;;4956382;28;20403;-82
2023/03/02 11:10:54;;;;;;;28.87;24.03;;;7.50;99.90;;;;;;4956537;28;20235;-83
2023/03/02 11:13:25;;;;;;;26.50;23.67;;;7.70;99.90;;;;;;4949866;28;20685;-82
2023/03/02 11:15:54;;;;;;;25.57;22.87;;;7.90;99.90;;;;;;4956007;28;20222;-83
2023/03/02 11:18:25;;;;;;;25.60;22.63;;;8.00;99.90;;;;;;4956165;28;20755;-82
2023/03/02 11:20:57;;;;;;;26.23;22.40;;;8.20;99.90;;;;;;4956660;28;20799;-82
2023/03/02 11:23:32;;;;;;;26.80;23.83;;;8.30;99.90;;;;;;4956150;28;20195;-82
2023/03/02 11:26:05;;;;;;;26.70;23.53;;;8.30;99.90;;;;;;4958222;28;20197;-83
2023/03/02 11:28:39;;;;;;;27.87;24.40;;;8.20;99.90;;;;;;4949163;28;20256;-83
2023/03/02 11:31:12;;;;;;;28.40;23.70;;;8.10;99.90;;;;;;4941439;28;20261;-80
2023/03/02 11:33:44;;;;;;;26.77;23.00;;;8.00;99.90;;;;;;4954258;29;20198;-79
2023/03/02 11:36:18;;;;;;;24.80;21.70;;;8.20;99.90;;;;;;4945270;29;20265;-80
2023/03/02 11:38:48;;;;;;;27.70;23.03;;;8.30;99.90;;;;;;4950984;28;20206;-81
2023/03/02 11:41:28;;;;;;;23.67;21.23;;;8.40;99.90;;;;;;4938070;29;20215;-80
2023/03/02 11:43:57;;;;;;;28.33;24.60;;;8.40;99.90;;;;;;4949844;28;20230;-80
2023/03/02 11:46:26;;;;;;;25.73;23.00;;;8.20;99.90;;;;;;4925210;29;20221;-79
2023/03/02 11:48:56;;;;;;;26.10;22.97;;;8.20;99.90;;;;;;4929444;29;20212;-80
2023/03/02 11:51:28;;;;;;;27.03;23.17;;;8.30;99.90;;;;;;4945218;28;20593;-78
2023/03/02 11:53:59;;;;;;;26.50;23.73;;;8.20;99.90;;;;;;4945723;29;20709;-79
2023/03/02 11:56:30;;;;;;;27.40;23.00;;;8.30;99.90;;;;;;4934226;29;20338;-79
2023/03/02 11:59:00;;;;;;;26.83;23.00;;;8.20;99.90;;;;;;4943493;28;20203;-79
2023/03/02 12:01:28;;;;;;;25.73;22.13;;;8.10;99.90;;;;;;4943648;28;20230;-79
2023/03/02 12:04:07;;;;;;;25.73;22.97;;;8.10;99.90;;;;;;4935492;29;20737;-79
2023/03/02 12:06:38;;;;;;;25.63;22.73;;;8.00;99.90;;;;;;4943105;29;20210;-79
2023/03/02 12:09:29;;;;;;;26.40;22.53;;;7.80;99.90;;;;;;4941926;29;20191;-79
2023/03/02 12:11:58;;;;;;;25.37;22.67;;;7.90;99.90;;;;;;4938269;29;20724;-79
2023/03/02 12:14:32;;;;;;;25.77;22.83;;;7.90;99.90;;;;;;4950380;28;20198;-79
2023/03/02 12:17:17;;;;;;;27.57;23.43;;;8.00;99.90;;;;;;4941556;29;20222;-79
2023/03/02 12:19:44;;;;;;;27.40;23.23;;;8.20;99.90;;;;;;4956068;28;20202;-79
2023/03/02 12:22:14;;;;;;;27.67;24.53;;;8.20;99.90;;;;;;4959436;28;20222;-79
2023/03/02 12:24:43;;;;;;;26.57;22.97;;;8.20;99.90;;;;;;4956342;28;20631;-79
2023/03/02 12:27:25;;;;;;;27.80;23.63;;;8.20;99.90;;;;;;4955161;28;20253;-79
2023/03/02 12:30:07;;;;;;;30.67;24.03;;;8.30;99.90;;;;;;4941879;28;20658;-79
2023/03/02 12:32:34;;;;;;;25.60;22.67;;;8.40;99.90;;;;;;4946342;28;20227;-79
2023/03/02 12:35:09;;;;;;;24.00;21.40;;;8.50;99.90;;;;;;4957228;28;20210;-79
2023/03/02 12:37:45;;;;;;;26.37;22.30;;;8.40;99.90;;;;;;4957113;28;20598;-79
2023/03/02 12:40:39;;;;;;;26.63;23.20;;;8.50;99.90;;;;;;4956997;28;20204;-79
2023/03/02 12:43:27;;;;;;;24.83;21.70;;;8.40;99.90;;;;;;4951414;29;20206;-79
2023/03/02 12:46:18;;;;;;;27.27;23.53;;;8.50;99.90;;;;;;4938522;29;20203;-79
2023/03/02 12:48:47;;;;;;;30.13;23.90;;;8.60;99.90;;;;;;4930823;29;20266;-83
2023/03/02 12:51:18;;;;;;;24.83;22.30;;;8.60;99.90;;;;;;4943219;28;20227;-81
2023/03/02 12:53:48;;;;;;;26.33;23.27;;;8.80;99.90;;;;;;4957017;28;20278;-81
2023/03/02 12:56:23;;;;;;;28.47;23.20;;;8.90;99.90;;;;;;4957475;28;20261;-81
2023/03/02 12:58:51;;;;;;;26.33;22.60;;;8.80;99.90;;;;;;4956649;28;20600;-81
2023/03/02 13:01:22;;;;;;;25.30;22.57;;;8.90;99.90;;;;;;4951736;28;20293;-80
2023/03/02 13:03:50;;;;;;;25.77;23.00;;;8.90;99.90;;;;;;4956417;28;20754;-80
2023/03/02 13:06:19;;;;;;;26.90;22.20;;;9.00;99.90;;;;;;4955846;28;20198;-80
2023/03/02 13:08:50;;;;;;;25.70;23.03;;;8.90;99.90;;;;;;4955032;28;20202;-80
2023/03/02 13:11:29;;;;;;;24.73;22.17;;;8.80;99.90;;;;;;4954464;28;20214;-82
2023/03/02 13:13:58;;;;;;;25.00;22.40;;;8.80;99.90;;;;;;4949454;29;20285;-80
2023/03/02 13:16:28;;;;;;;27.33;23.10;;;8.80;99.90;;;;;;4955306;28;20218;-82
2023/03/02 13:18:59;;;;;;;28.80;23.57;;;8.80;99.90;;;;;;4953948;28;20685;-81
2023/03/02 13:21:31;;;;;;;24.73;22.23;;;8.90;99.90;;;;;;4946278;29;20700;-81
2023/03/02 13:24:00;;;;;;;21.55;19.25;;;8.90;99.90;;;;;;4953132;28;20457;-79
2023/03/02 13:26:29;;;;;;;23.63;20.47;;;9.00;99.90;;;;;;4954540;28;20199;-79
2023/03/02 13:29:03;;;;;;;24.30;21.27;;;9.00;99.90;;;;;;4950970;28;20582;-79
2023/03/02 13:31:31;;;;;;;23.57;21.10;;;8.80;99.90;;;;;;4952381;28;20226;-79
2023/03/02 13:33:58;;;;;;;27.80;21.50;;;8.70;99.90;;;;;;4950314;28;20207;-79
2023/03/02 13:36:28;;;;;;;23.30;20.67;;;8.60;99.90;;;;;;4952040;29;20249;-78
2023/03/02 13:38:58;;;;;;;23.80;21.40;;;8.50;99.90;;;;;;4954497;28;20257;-78
2023/03/02 13:41:27;;;;;;;25.37;22.73;;;8.30;99.90;;;;;;4942089;28;20219;-79
2023/03/02 13:43:55;;;;;;;25.60;22.73;;;8.20;99.90;;;;;;4952278;28;20203;-79
2023/03/02 13:46:27;;;;;;;26.30;22.87;;;8.20;99.90;;;;;;4954026;28;20274;-79
2023/03/02 13:48:55;;;;;;;26.13;22.23;;;8.10;99.90;;;;;;4955084;28;20272;-78
2023/03/02 13:51:24;;;;;;;25.20;22.20;;;8.10;99.90;;;;;;4948692;28;20257;-80
2023/03/02 13:53:54;;;;;;;25.07;22.43;;;8.00;99.90;;;;;;4947481;28;20629;-79
2023/03/02 13:56:30;;;;;;;25.20;22.40;;;7.90;99.90;;;;;;4953910;28;20207;-79
2023/03/02 13:58:57;;;;;;;26.20;22.00;;;7.80;99.90;;;;;;4953829;28;20205;-79
2023/03/02 14:01:24;;;;;;;23.90;21.40;;;7.70;99.90;;;;;;4947508;28;20581;-79
2023/03/02 14:03:50;;;;;;;22.27;19.97;;;7.70;99.90;;;;;;4955780;28;20207;-79
2023/03/02 14:06:17;;;;;;;25.07;21.57;;;7.80;99.90;;;;;;4954850;28;20227;-79
2023/03/02 14:08:45;;;;;;;24.73;21.17;;;7.90;99.90;;;;;;4953919;28;20222;-79
2023/03/02 14:11:13;;;;;;;25.50;21.73;;;7.90;99.90;;;;;;4948392;28;20219;-79
2023/03/02 14:13:45;;;;;;;24.87;21.60;;;8.00;99.90;;;;;;4953504;29;20562;-79
2023/03/02 14:16:13;;;;;;;25.77;22.43;;;8.00;99.90;;;;;;4955401;28;20210;-80
2023/03/02 14:18:41;;;;;;;32.43;22.03;;;7.90;99.90;;;;;;4953848;28;20233;-79
2023/03/02 14:21:12;;;;;;;27.00;23.07;;;7.90;99.90;;;;;;4955554;28;20273;-79
2023/03/02 14:23:39;;;;;;;24.93;22.27;;;7.90;99.90;;;;;;4954695;28;20204;-80
2023/03/02 14:26:20;;;;;;;26.60;22.40;;;8.00;99.90;;;;;;4954966;28;20206;-79
2023/03/02 14:28:49;;;;;;;23.07;20.67;;;7.90;99.90;;;;;;4952171;28;20215;-79
2023/03/02 14:31:17;;;;;;;25.70;22.43;;;7.90;99.90;;;;;;4939982;28;20230;-79
2023/03/02 14:33:44;;;;;;;24.83;21.73;;;8.00;99.90;;;;;;4943941;29;20234;-79
2023/03/02 14:36:15;;;;;;;25.87;23.07;;;7.90;99.90;;;;;;4938718;28;20238;-79
2023/03/02 14:38:43;;;;;;;25.67;21.30;;;7.90;99.90;;;;;;4943180;29;20218;-78
2023/03/02 14:41:13;;;;;;;22.97;20.47;;;7.90;99.90;;;;;;4946609;28;20230;-79
2023/03/02 14:43:40;;;;;;;24.70;20.83;;;8.00;99.90;;;;;;4932477;28;20206;-78
2023/03/02 14:46:08;;;;;;;24.10;21.50;;;7.90;99.90;;;;;;4937120;29;20672;-77
2023/03/02 14:48:35;;;;;;;25.23;22.10;;;7.90;99.90;;;;;;4944110;28;20194;-78
2023/03/02 14:51:02;;;;;;;24.23;21.73;;;7.80;99.90;;;;;;4952602;28;20657;-78
2023/03/02 14:53:33;;;;;;;26.87;20.83;;;7.80;99.90;;;;;;4946607;28;20633;-78
2023/03/02 14:56:00;;;;;;;24.23;21.20;;;7.80;99.90;;;;;;4951661;28;20206;-79
2023/03/02 14:58:31;;;;;;;26.10;22.53;;;7.80;99.90;;;;;;4938496;28;20230;-78
2023/03/02 15:00:58;;;;;;;25.53;22.43;;;7.80;99.90;;;;;;4951914;28;20261;-78
2023/03/02 15:03:26;;;;;;;25.07;22.07;;;7.70;99.90;;;;;;4939814;29;20250;-79
2023/03/02 15:05:54;;;;;;;24.93;22.17;;;7.70;99.90;;;;;;4942349;29;20207;-78
2023/03/02 15:08:22;;;;;;;23.60;21.20;;;7.70;99.90;;;;;;4941482;29;20254;-78
2023/03/02 15:10:49;;;;;;;23.83;21.40;;;7.70;99.90;;;;;;4938150;28;20313;-78
2023/03/02 15:13:16;;;;;;;26.37;22.43;;;7.70;99.90;;;;;;4933367;29;20234;-79
2023/03/02 15:15:44;;;;;;;24.87;22.10;;;7.60;99.90;;;;;;4944595;29;20610;-81
2023/03/02 15:18:13;;;;;;;23.73;21.27;;;7.60;99.90;;;;;;4956360;28;20222;-80
2023/03/02 15:20:42;;;;;;;27.77;23.93;;;7.60;99.90;;;;;;4943643;28;20665;-79
2023/03/02 15:23:08;;;;;;;24.83;22.13;;;7.60;99.90;;;;;;4942854;29;20202;-76
2023/03/02 15:25:35;;;;;;;24.67;21.90;;;7.50;99.90;;;;;;4938045;28;20203;-77
2023/03/02 15:28:02;;;;;;;24.13;21.63;;;7.50;99.90;;;;;;4941949;29;20218;-76
2023/03/02 15:30:29;;;;;;;25.20;21.63;;;7.50;99.90;;;;;;4939599;28;20259;-76
2023/03/02 15:32:58;;;;;;;22.63;20.23;;;7.50;99.90;;;;;;4938962;29;20219;-77
2023/03/02 15:35:26;;;;;;;23.43;20.97;;;7.40;99.90;;;;;;4945736;28;20206;-76
2023/03/02 15:37:57;;;;;;;23.77;21.13;;;7.40;99.90;;;;;;4936958;28;20218;-76
2023/03/02 15:40:24;;;;;;;29.83;24.70;;;7.30;99.90;;;;;;4936706;28;20590;-77
2023/03/02 15:42:51;;;;;;;27.60;22.73;;;7.30;99.90;;;;;;4941085;28;20235;-79
2023/03/02 15:45:18;;;;;;;24.23;21.60;;;7.30;99.90;;;;;;4944083;29;20279;-79
2023/03/02 15:47:45;;;;;;;24.00;21.47;;;7.20;99.90;;;;;;4937667;28;20685;-79